Language selection

My Weather Profile Weather Topics  | 

Lake Nipigon: Past 24 Hour Conditions

 

Lake Of the Woods - 45148

02:00 AM EDT 25 September 2021Buoy position: 49.63N 94.57W
Disclaimer

This table is a summary of hourly weather conditions for the past 24 hours.
Please note that these observations might not always be representative of weather conditions over their associated marine area.

Date / Time
(EDT)
Wind(knots) Wave height(m) Wave period(s) Pressure(kPa) Air tempC) Water tempC)
25 September 2021
2:00 NW 8 gust 10 0.1 N/A 101.0 10 N/A
1:00 WNW 12 gust 17 0.1 N/A 101.0 11 N/A
0:00 WNW 12 gust 17 0.2 N/A 101.0 11 N/A
24 September 2021
23:00 WNW 12 gust 17 0.2 N/A 101.0 11 N/A
22:00 WNW 10 gust 12 0.1 N/A 101.1 11 N/A
21:00 NW 12 gust 17 0.1 N/A 101.1 11 N/A
20:00 WNW 10 gust 13 0.1 N/A 101.0 13 N/A
19:00 NW 12 gust 16 0.1 N/A 101.0 13 N/A
18:00 WNW 10 gust 13 0.1 N/A 101.0 14 N/A
17:00 NW 8 gust 10 0.1 N/A 101.0 13 N/A
16:00 WNW 12 gust 16 0.2 N/A 101.0 14 N/A
15:00 W 13 gust 22 0.2 2.0 101.1 14 N/A
14:00 W 13 gust 17 0.2 N/A 101.1 13 N/A
13:00 WNW 10 gust 13 0.2 N/A 101.2 13 N/A
12:00 NW 10 gust 16 0.1 N/A 101.2 13 N/A
11:00 WNW 8 gust 12 0.1 N/A 101.2 12 N/A
10:00 NNW 12 gust 13 0.1 N/A 101.2 11 N/A
9:00 NNW 10 gust 13 0.1 N/A 101.2 12 N/A
8:00 NW 8 gust 12 N/A N/A 101.2 12 N/A
7:00 NW 10 gust 12 N/A N/A 101.1 13 N/A
6:00 NW 8 gust 12 N/A N/A 101.1 13 N/A
5:00 NW 8 gust 10 N/A N/A 101.2 14 N/A
4:00 NNW 10 gust 12 0.1 N/A 101.1 14 N/A
3:00 NNW 12 gust 13 0.1 N/A 101.1 15 N/A
2:00 NW 10 gust 12 N/A N/A 101.1 16 N/A

Zoom-in to make a selection

Map of Great Lakes - Lake Superior marine weather areas Mid Superior - 45001 East Superior - 45004 West Superior - 45006 Slate Island - 45136 Lake Of the Woods - 45148 Kenora Airport Royal Island Armstrong Airport Caribou Island Marathon Airport Pukaskwa National Park Thunder Bay Airport Welcome Island Little Flatland Island Sault Ste. Marie Airport Wawa Airport
Legend:
buoy Buoy
land station Land Station

Great Lakes - Lake Superior Area

Another Region

What we are doing

Date modified: